Impacts METAR Board
IDs:

KCEW - Crestview/Sikes Arpt, FL, US

Updated at: 1800 UTC 02 Oct 2022
Potential Impact None Slight Moderate High
Time 02/06Z 02/07Z 02/08Z 02/09Z 02/10Z 02/11Z 02/12Z 02/13Z 02/14Z 02/15Z 02/16Z 02/17Z 02/18Z
Temp61 60 56 53 51 50 50 60 68 76 80 84 86
Dewpt47 47 48 48 48 48 47 50 52 53 51 51 50
Altim29.97 29.98 29.98 29.98 30.00 30.01 30.02 30.04 30.05 30.06 30.05 30.03 30.01
VIS10 10 10 10 10 10 10 10 10 10 10 10 10
CIG-- -- -- -- -- -- -- -- -- -- -- -- --
CoverCLRCLRCLRCLRCLRCLRCLRCLRCLRFEWCLRCLRCLR
FltCatVFRVFRVFRVFRVFRVFRVFRVFRVFRVFRVFRVFRVFR
WX--------------------------
WDir35035036010000350010320320
WSpd5 4 3 3 0 0 0 5 3 5 6 10
WGst-- -- -- -- -- -- -- -- -- -- -- -- 17
Raw hourly METARs
KCEW 020553Z AUTO 35005KT 10SM CLR 16/08 A2997 RMK AO2 SLP146 T01610083 10200 20139 403000128 58000
KCEW 020653Z AUTO 35004KT 10SM CLR 16/08 A2998 RMK AO2 SLP149 T01560083
KCEW 020753Z AUTO 36003KT 10SM CLR 13/09 A2998 RMK AO2 SLP150 T01330089
KCEW 020853Z AUTO 01003KT 10SM CLR 12/09 A2998 RMK AO2 SLP151 T01170089 51005
KCEW 020953Z AUTO 00000KT 10SM CLR 11/09 A3000 RMK AO2 SLP155 T01060089
KCEW 021053Z AUTO 00000KT 10SM CLR 10/09 A3001 RMK AO2 SLP158 T01000089
KCEW 021153Z AUTO 00000KT 10SM CLR 10/08 A3002 RMK AO2 SLP164 T01000083 10161 20094 53012
KCEW 021253Z AUTO 35005KT 10SM CLR 16/10 A3004 RMK AO2 SLP169 T01560100
KCEW 021353Z AUTO VRB03KT 10SM CLR 20/11 A3005 RMK AO2 SLP174 T02000111
KCEW 021453Z AUTO 10SM FEW001 24/12 A3006 RMK AO2 SLP175 T02440117 51012
KCEW 021553Z AUTO 01005KT 10SM CLR 27/11 A3005 RMK AO2 SLP173 T02670106
KCEW 021653Z AUTO 32006KT 10SM CLR 29/11 A3003 RMK AO2 SLP166 T02890106
KCEW 021753Z AUTO 32010G17KT 10SM CLR 30/10 A3001 RMK AO2 SLP159 T03000100 10300 20100 58015



Page loaded:  18:44 UTC  |   11:44 AM Pacific  |   12:44 PM Mountain  |   01:44 PM Central  |   02:44 PM Eastern

 

ADVISORIES

FORECASTS

FORECASTS

OBSERVATIONS

USER TOOLS

ABOUT US